Time,TemperatureF,DewpointF,PressureIn,WindDirection,WindDirectionDegrees,WindSpeedMPH,WindSpeedGustMPH,Humidity,HourlyPrecipIn,Conditions,Clouds,dailyrainin,SolarRadiationWatts/m^2,SoftwareType,DateUTC
2013-11-06 00:22:00,41.0,23.0,-100.00,ESE,115,4.0,5.0,48,0.00,,,0.00,0.000000,,2013-11-06 08:22:00,
2013-11-06 00:32:00,41.0,23.0,-100.00,ESE,115,4.0,5.0,48,0.00,,,0.00,0.000000,,2013-11-06 08:32:00,
2013-11-06 00:42:00,41.0,23.0,-100.00,ESE,115,4.0,5.0,48,0.00,,,0.00,0.000000,,2013-11-06 08:42:00,
2013-11-06 00:52:00,41.0,23.0,-100.00,ESE,115,4.0,5.0,48,0.00,,,0.00,0.000000,,2013-11-06 08:52:00,
2013-11-06 01:22:00,42.0,23.0,-100.00,ESE,110,4.0,6.0,46,0.00,,,0.00,0.000000,,2013-11-06 09:22:00,
2013-11-06 01:33:00,42.0,23.0,-100.00,ESE,110,4.0,6.0,46,0.00,,,0.00,0.000000,,2013-11-06 09:33:00,
2013-11-06 01:43:00,42.0,23.0,-100.00,ESE,110,4.0,6.0,46,0.00,,,0.00,0.000000,,2013-11-06 09:43:00,
2013-11-06 01:53:00,42.0,23.0,-100.00,ESE,110,4.0,6.0,46,0.00,,,0.00,0.000000,,2013-11-06 09:53:00,
2013-11-06 02:23:00,38.0,23.0,-100.00,East,96,0.0,7.0,54,0.00,,,0.00,0.000000,,2013-11-06 10:23:00,
2013-11-06 02:33:00,38.0,23.0,-100.00,East,96,0.0,7.0,54,0.00,,,0.00,0.000000,,2013-11-06 10:33:00,
2013-11-06 02:42:00,38.0,23.0,-100.00,East,96,0.0,7.0,54,0.00,,,0.00,0.000000,,2013-11-06 10:42:00,
2013-11-06 02:52:00,38.0,23.0,-100.00,East,96,0.0,7.0,54,0.00,,,0.00,0.000000,,2013-11-06 10:52:00,
2013-11-06 03:22:00,40.0,20.0,-100.00,East,90,0.0,5.0,45,0.00,,,0.00,0.000000,,2013-11-06 11:22:00,
2013-11-06 03:33:00,40.0,20.0,-100.00,East,90,0.0,5.0,45,0.00,,,0.00,0.000000,,2013-11-06 11:33:00,
2013-11-06 03:42:00,40.0,20.0,-100.00,East,90,0.0,5.0,45,0.00,,,0.00,0.000000,,2013-11-06 11:42:00,
2013-11-06 03:52:00,40.0,20.0,-100.00,East,90,0.0,5.0,45,0.00,,,0.00,0.000000,,2013-11-06 11:52:00,
2013-11-06 04:42:00,43.0,18.0,-100.00,ESE,102,0.0,5.0,36,0.00,,,0.00,0.000000,,2013-11-06 12:42:00,
2013-11-06 04:52:00,43.0,18.0,-100.00,ESE,102,0.0,5.0,36,0.00,,,0.00,0.000000,,2013-11-06 12:52:00,
2013-11-06 05:22:00,42.0,18.0,-100.00,East,89,0.0,6.0,38,0.00,,,-99.99,0.000000,,2013-11-06 13:22:00,
2013-11-06 05:32:00,42.0,18.0,-100.00,East,89,0.0,6.0,38,0.00,,,-99.99,0.000000,,2013-11-06 13:32:00,
2013-11-06 05:42:00,42.0,18.0,-100.00,East,89,0.0,6.0,38,0.00,,,-99.99,0.000000,,2013-11-06 13:42:00,
2013-11-06 05:52:00,42.0,18.0,-100.00,East,89,0.0,6.0,38,0.00,,,-99.99,0.000000,,2013-11-06 13:52:00,
2013-11-06 06:22:00,42.0,20.0,-100.00,East,95,1.0,4.0,41,0.00,,,0.00,0.000000,,2013-11-06 14:22:00,
2013-11-06 06:32:00,42.0,20.0,-100.00,East,95,1.0,4.0,41,0.00,,,0.00,0.000000,,2013-11-06 14:32:00,
2013-11-06 06:42:00,42.0,20.0,-100.00,East,95,1.0,4.0,41,0.00,,,0.00,0.000000,,2013-11-06 14:42:00,
2013-11-06 06:52:00,42.0,20.0,-100.00,East,95,1.0,4.0,41,0.00,,,0.00,0.000000,,2013-11-06 14:52:00,
2013-11-06 07:22:00,44.0,18.0,-100.00,ESE,102,0.0,6.0,35,0.00,,,0.00,9.000000,,2013-11-06 15:22:00,
2013-11-06 07:33:00,44.0,18.0,-100.00,ESE,102,0.0,6.0,35,0.00,,,0.00,9.000000,,2013-11-06 15:33:00,
2013-11-06 07:43:00,44.0,18.0,-100.00,ESE,102,0.0,6.0,35,0.00,,,0.00,9.000000,,2013-11-06 15:43:00,
2013-11-06 07:53:00,44.0,18.0,-100.00,ESE,102,0.0,6.0,35,0.00,,,0.00,9.000000,,2013-11-06 15:53:00,
2013-11-06 11:42:00,69.0,21.0,-100.00,WSW,248,3.0,5.0,16,-99.99,,,0.00,749.000000,,2013-11-06 19:42:00,
2013-11-06 11:52:00,69.0,21.0,-100.00,WSW,248,3.0,5.0,16,-99.99,,,0.00,749.000000,,2013-11-06 19:52:00,
2013-11-06 12:22:00,72.0,25.0,-100.00,WSW,255,3.0,7.0,17,0.00,,,0.00,795.000000,,2013-11-06 20:22:00,
2013-11-06 12:32:00,72.0,25.0,-100.00,WSW,255,3.0,7.0,17,0.00,,,0.00,795.000000,,2013-11-06 20:32:00,
2013-11-06 12:42:00,72.0,25.0,-100.00,WSW,255,3.0,7.0,17,0.00,,,0.00,795.000000,,2013-11-06 20:42:00,
2013-11-06 12:52:00,72.0,25.0,-100.00,WSW,255,3.0,7.0,17,0.00,,,0.00,795.000000,,2013-11-06 20:52:00,
2013-11-06 13:22:00,71.0,24.0,-100.00,NNE,24,2.0,8.0,17,0.00,,,0.00,750.000000,,2013-11-06 21:22:00,
2013-11-06 13:33:00,71.0,24.0,-100.00,NNE,24,2.0,8.0,17,0.00,,,0.00,750.000000,,2013-11-06 21:33:00,
2013-11-06 13:43:00,71.0,24.0,-100.00,NNE,24,2.0,8.0,17,0.00,,,0.00,750.000000,,2013-11-06 21:43:00,
2013-11-06 13:54:00,71.0,24.0,-100.00,NNE,24,2.0,8.0,17,0.00,,,0.00,750.000000,,2013-11-06 21:54:00,
2013-11-06 14:23:00,71.0,24.0,-100.00,WSW,249,3.0,7.0,17,0.00,,,0.00,664.000000,,2013-11-06 22:23:00,
2013-11-06 14:33:00,71.0,24.0,-100.00,WSW,249,3.0,7.0,17,0.00,,,0.00,664.000000,,2013-11-06 22:33:00,
2013-11-06 14:43:00,71.0,24.0,-100.00,WSW,249,3.0,7.0,17,0.00,,,0.00,664.000000,,2013-11-06 22:43:00,
2013-11-06 14:53:00,71.0,24.0,-100.00,WSW,249,3.0,7.0,17,0.00,,,0.00,664.000000,,2013-11-06 22:53:00,
2013-11-06 15:22:00,70.0,27.0,-100.00,WNW,292,0.0,7.0,20,0.00,,,0.00,461.000000,,2013-11-06 23:22:00,
2013-11-06 15:33:00,70.0,27.0,-100.00,WNW,292,0.0,7.0,20,0.00,,,0.00,461.000000,,2013-11-06 23:33:00,
2013-11-06 15:42:00,70.0,27.0,-100.00,WNW,292,0.0,7.0,20,0.00,,,0.00,461.000000,,2013-11-06 23:42:00,
2013-11-06 15:53:00,70.0,27.0,-100.00,WNW,292,0.0,7.0,20,0.00,,,0.00,461.000000,,2013-11-06 23:53:00,
2013-11-06 16:22:00,66.0,27.0,-100.00,WSW,244,1.0,7.0,23,0.00,,,0.00,288.000000,,2013-11-07 00:22:00,
2013-11-06 16:32:00,66.0,27.0,-100.00,WSW,244,1.0,7.0,23,0.00,,,0.00,288.000000,,2013-11-07 00:32:00,
2013-11-06 16:42:00,66.0,27.0,-100.00,WSW,244,1.0,7.0,23,0.00,,,0.00,288.000000,,2013-11-07 00:42:00,
2013-11-06 16:52:00,66.0,27.0,-100.00,WSW,244,1.0,7.0,23,0.00,,,0.00,288.000000,,2013-11-07 00:52:00,
2013-11-06 17:22:00,59.0,28.0,-100.00,ENE,77,0.0,6.0,31,0.00,,,0.00,89.000000,,2013-11-07 01:22:00,
2013-11-06 17:32:00,59.0,28.0,-100.00,ENE,77,0.0,6.0,31,0.00,,,0.00,89.000000,,2013-11-07 01:32:00,
2013-11-06 17:42:00,59.0,28.0,-100.00,ENE,77,0.0,6.0,31,0.00,,,0.00,89.000000,,2013-11-07 01:42:00,
2013-11-06 17:52:00,59.0,28.0,-100.00,ENE,77,0.0,6.0,31,0.00,,,0.00,89.000000,,2013-11-07 01:52:00,
2013-11-06 18:22:00,52.0,27.0,-100.00,ESE,106,2.0,3.0,38,0.00,,,-99.99,0.000000,,2013-11-07 02:22:00,
2013-11-06 18:32:00,52.0,27.0,-100.00,ESE,106,2.0,3.0,38,0.00,,,-99.99,0.000000,,2013-11-07 02:32:00,
2013-11-06 18:42:00,52.0,27.0,-100.00,ESE,106,2.0,3.0,38,0.00,,,-99.99,0.000000,,2013-11-07 02:42:00,
2013-11-06 18:53:00,52.0,27.0,-100.00,ESE,106,2.0,3.0,38,0.00,,,-99.99,0.000000,,2013-11-07 02:53:00,
2013-11-06 19:21:00,51.0,26.0,-100.00,ESE,102,1.0,5.0,37,0.00,,,0.00,0.000000,,2013-11-07 03:21:00,
2013-11-06 19:32:00,51.0,26.0,-100.00,ESE,102,1.0,5.0,37,0.00,,,0.00,0.000000,,2013-11-07 03:32:00,
2013-11-06 19:44:00,51.0,26.0,-100.00,ESE,102,1.0,5.0,37,0.00,,,0.00,0.000000,,2013-11-07 03:44:00,
2013-11-06 19:54:00,51.0,26.0,-100.00,ESE,102,1.0,5.0,37,0.00,,,0.00,0.000000,,2013-11-07 03:54:00,
2013-11-06 20:24:00,49.0,24.0,-100.00,ESE,106,0.0,6.0,37,0.00,,,0.00,0.000000,,2013-11-07 04:24:00,
2013-11-06 20:34:00,49.0,24.0,-100.00,ESE,106,0.0,6.0,37,0.00,,,0.00,0.000000,,2013-11-07 04:34:00,
2013-11-06 20:43:00,49.0,24.0,-100.00,ESE,106,0.0,6.0,37,0.00,,,0.00,0.000000,,2013-11-07 04:43:00,
2013-11-06 20:53:00,49.0,24.0,-100.00,ESE,106,0.0,6.0,37,0.00,,,0.00,0.000000,,2013-11-07 04:53:00,
2013-11-06 21:23:00,48.0,24.0,-100.00,ESE,111,1.0,5.0,38,0.00,,,0.00,0.000000,,2013-11-07 05:23:00,
2013-11-06 21:34:00,48.0,24.0,-100.00,ESE,111,1.0,5.0,38,0.00,,,0.00,0.000000,,2013-11-07 05:34:00,
2013-11-06 21:44:00,48.0,24.0,-100.00,ESE,111,1.0,5.0,38,0.00,,,0.00,0.000000,,2013-11-07 05:44:00,
2013-11-06 21:54:00,48.0,24.0,-100.00,ESE,111,1.0,5.0,38,0.00,,,0.00,0.000000,,2013-11-07 05:54:00,
2013-11-06 22:23:00,47.0,23.0,-100.00,ESE,105,1.0,7.0,39,0.00,,,0.00,0.000000,,2013-11-07 06:23:00,
2013-11-06 22:32:00,47.0,23.0,-100.00,ESE,105,1.0,7.0,39,0.00,,,0.00,0.000000,,2013-11-07 06:32:00,
2013-11-06 22:42:00,47.0,23.0,-100.00,ESE,105,1.0,7.0,39,0.00,,,0.00,0.000000,,2013-11-07 06:42:00,
2013-11-06 22:52:00,47.0,23.0,-100.00,ESE,105,1.0,7.0,39,0.00,,,0.00,0.000000,,2013-11-07 06:52:00,
2013-11-06 23:21:00,49.0,26.0,-100.00,East,98,2.0,5.0,40,0.00,,,0.00,0.000000,,2013-11-07 07:21:00,
2013-11-06 23:32:00,49.0,26.0,-100.00,East,98,2.0,5.0,40,0.00,,,0.00,0.000000,,2013-11-07 07:32:00,
2013-11-06 23:42:00,49.0,26.0,-100.00,East,98,2.0,5.0,40,0.00,,,0.00,0.000000,,2013-11-07 07:42:00,
2013-11-06 23:52:00,49.0,26.0,-100.00,East,98,2.0,5.0,40,0.00,,,0.00,0.000000,,2013-11-07 07:52:00,